Time;durP1;ratioP1;P1;durP2;ratioP2;P2;SDS_P1;SDS_P2;PMS_P1;PMS_P2;Temp;Humidity;BMP_temperature;BMP_pressure;BME280_temperature;BME280_humidity;BME280_pressure;Samples;Min_cycle;Max_cycle;Signal;HPM_P1;HPM_P2
2022/10/26 00:03:22;;;;;;;15.40;8.87;;;;;;;9.91;100.00;100775.67;3509636;82;31639;-92
2022/10/26 00:08:23;;;;;;;15.50;8.77;;;;;;;9.84;100.00;100774.98;3500505;82;98882;-94
2022/10/26 00:13:23;;;;;;;13.63;7.80;;;;;;;9.81;100.00;100777.06;3507935;82;31611;-95
2022/10/26 00:18:24;;;;;;;17.43;9.20;;;;;;;9.79;100.00;100777.20;3498540;82;98823;-93
2022/10/26 00:23:25;;;;;;;17.37;8.87;;;;;;;9.74;100.00;100780.25;3505574;82;31648;-93
2022/10/26 00:28:26;;;;;;;18.57;10.40;;;;;;;9.70;100.00;100784.90;3473159;82;98931;-92
2022/10/26 00:33:28;;;;;;;16.70;8.83;;;;;;;9.67;100.00;100780.92;3508595;82;31709;-93
2022/10/26 00:38:29;;;;;;;14.00;8.40;;;;;;;9.62;100.00;100790.02;3503690;82;99066;-94
2022/10/26 00:43:37;;;;;;;17.53;8.43;;;;;;;9.56;100.00;100799.71;3504828;82;31685;-93
2022/10/26 00:48:51;;;;;;;15.80;7.85;;;;;;;9.53;100.00;100796.30;3502797;82;98537;-93
2022/10/26 00:53:54;;;;;;;18.20;9.38;;;;;;;9.52;100.00;100791.97;3508281;82;33255;-92
2022/10/26 00:59:00;;;;;;;12.63;7.55;;;;;;;9.49;100.00;100791.33;3497360;82;98977;-93
2022/10/26 01:04:01;;;;;;;11.53;7.05;;;;;;;9.44;100.00;100791.61;3509763;82;26038;-92
2022/10/26 01:09:02;;;;;;;13.03;7.43;;;;;;;9.42;100.00;100789.78;3503600;82;98798;-92
2022/10/26 01:14:07;;;;;;;20.40;9.40;;;;;;;9.37;100.00;100784.60;3509758;82;31589;-93
2022/10/26 01:19:37;;;;;;;14.28;7.85;;;;;;;9.31;100.00;100789.56;3497331;82;98959;-93
2022/10/26 01:24:55;;;;;;;18.17;7.37;;;;;;;9.27;100.00;100792.03;3492745;83;32420;-94
2022/10/26 01:30:24;;;;;;;14.58;7.08;;;;;;;9.24;100.00;100785.30;3490793;83;98651;-94
2022/10/26 01:35:57;;;;;;;13.80;8.10;;;;;;;9.21;100.00;100790.13;3499211;83;33252;-94
2022/10/26 01:41:17;;;;;;;14.67;8.20;;;;;;;9.19;100.00;100795.75;3490618;83;98611;-94
2022/10/26 01:46:22;;;;;;;15.93;8.10;;;;;;;9.18;100.00;100801.84;3487089;83;98960;-93
2022/10/26 01:51:26;;;;;;;17.25;7.53;;;;;;;9.15;100.00;100796.25;3498776;83;33770;-93
2022/10/26 01:56:31;;;;;;;16.90;8.55;;;;;;;9.12;100.00;100790.92;3489851;83;98471;-93
2022/10/26 02:01:52;;;;;;;19.87;8.80;;;;;;;9.07;100.00;100793.13;3493756;83;33344;-94
2022/10/26 02:07:26;;;;;;;12.85;6.90;;;;;;;9.04;100.00;100790.53;3486912;83;98750;-93
2022/10/26 02:12:47;;;;;;;15.20;7.83;;;;;;;9.01;100.00;100784.39;3496981;83;33757;-93
2022/10/26 02:18:05;;;;;;;15.43;7.87;;;;;;;8.95;100.00;100789.14;3486726;82;98821;-94
2022/10/26 02:23:07;;;;;;;13.75;7.97;;;;;;;8.92;100.00;100789.27;3504858;82;31749;-94
2022/10/26 02:28:13;;;;;;;21.50;8.47;;;;;;;8.89;100.00;100787.82;3502764;82;98941;-92
2022/10/26 02:33:15;;;;;;;25.37;11.57;;;;;;;8.86;100.00;100792.64;3502291;82;29023;-94
2022/10/26 02:38:18;;;;;;;16.80;9.00;;;;;;;8.80;100.00;100793.50;3503313;82;98761;-94
2022/10/26 02:43:21;;;;;;;20.60;11.20;;;;;;;8.79;100.00;100797.97;3508485;82;33325;-94
2022/10/26 02:48:23;;;;;;;20.10;11.15;;;;;;;8.81;100.00;100787.42;3501458;82;99198;-94
2022/10/26 02:53:44;;;;;;;22.00;12.47;;;;;;;8.82;100.00;100798.05;3507656;82;33849;-93
2022/10/26 02:58:50;;;;;;;22.77;13.10;;;;;;;8.81;100.00;100799.77;3497000;82;99027;-94
2022/10/26 03:03:57;;;;;;;21.97;14.30;;;;;;;8.81;100.00;100797.84;3510508;82;25870;-94
2022/10/26 03:08:58;;;;;;;19.65;12.23;;;;;;;8.82;100.00;100809.59;3498351;82;99021;-93
2022/10/26 03:13:59;;;;;;;19.60;13.57;;;;;;;8.83;100.00;100816.10;3505417;82;31618;-95
2022/10/26 03:18:59;;;;;;;20.33;12.73;;;;;;;8.86;100.00;100817.34;3503943;82;98881;-94
2022/10/26 03:24:00;;;;;;;21.10;13.07;;;;;;;8.88;100.00;100825.44;3506825;82;31659;-94
2022/10/26 03:29:02;;;;;;;19.20;12.40;;;;;;;8.89;100.00;100824.28;3497633;82;99153;-95
2022/10/26 03:34:02;;;;;;;18.27;12.60;;;;;;;8.88;100.00;100817.20;3506038;82;31611;-95
2022/10/26 03:39:03;;;;;;;19.67;11.80;;;;;;;8.87;100.00;100823.05;3497531;82;98653;-95
2022/10/26 03:44:04;;;;;;;18.70;12.03;;;;;;;8.86;100.00;100826.38;3506140;82;31661;-95
2022/10/26 03:49:05;;;;;;;18.30;10.82;;;;;;;8.85;100.00;100833.59;3498924;82;98998;-95
2022/10/26 03:54:06;;;;;;;17.10;11.23;;;;;;;8.82;100.00;100839.22;3505727;82;26796;-95
2022/10/26 03:59:07;;;;;;;18.07;11.53;;;;;;;8.82;100.00;100829.61;3500486;82;99137;-96
2022/10/26 04:04:08;;;;;;;17.63;11.67;;;;;;;8.83;100.00;100835.91;3505470;82;34835;-95
2022/10/26 04:09:09;;;;;;;15.77;9.70;;;;;;;8.82;100.00;100830.98;3468015;82;99080;-95
2022/10/26 04:14:09;;;;;;;17.27;10.70;;;;;;;8.84;100.00;100834.75;3510473;82;34826;-95
2022/10/26 04:19:10;;;;;;;15.83;9.60;;;;;;;8.82;100.00;100826.86;3499943;82;99014;-95
2022/10/26 04:24:12;;;;;;;16.83;10.10;;;;;;;8.82;100.00;100822.75;3499895;83;34845;-95
2022/10/26 04:29:12;;;;;;;14.33;8.87;;;;;;;8.81;100.00;100825.84;3469881;83;98915;-96
2022/10/26 04:34:13;;;;;;;15.03;9.50;;;;;;;8.82;100.00;100826.05;3499415;83;35801;-96
2022/10/26 04:39:14;;;;;;;15.28;9.68;;;;;;;8.81;100.00;100832.14;3491530;83;98894;-95
2022/10/26 04:44:15;;;;;;;15.13;9.53;;;;;;;8.81;100.00;100829.95;3499599;83;26148;-95
2022/10/26 04:49:16;;;;;;;16.30;9.97;;;;;;;8.81;100.00;100839.56;3491283;83;98755;-95
2022/10/26 04:54:17;;;;;;;17.95;11.38;;;;;;;8.80;100.00;100834.67;3492152;83;35545;-95
2022/10/26 04:59:18;;;;;;;15.50;9.93;;;;;;;8.78;100.00;100837.55;3490945;83;98684;-95
2022/10/26 05:04:18;;;;;;;19.12;10.80;;;;;;;8.77;100.00;100832.63;3502674;83;32942;-94
2022/10/26 05:09:19;;;;;;;17.50;10.37;;;;;;;8.79;100.00;100829.53;3498438;83;98977;-95
2022/10/26 05:14:20;;;;;;;16.93;10.37;;;;;;;8.78;100.00;100830.69;3498430;83;32423;-94
2022/10/26 05:19:21;;;;;;;15.43;10.25;;;;;;;8.75;100.00;100821.78;3486834;83;99091;-95
2022/10/26 05:24:22;;;;;;;18.33;10.50;;;;;;;8.74;100.00;100840.77;3473621;84;27573;-94
2022/10/26 05:29:22;;;;;;;16.20;10.67;;;;;;;8.70;100.00;100857.72;3471622;84;99136;-94
2022/10/26 05:34:23;;;;;;;16.77;10.90;;;;;;;8.64;100.00;100853.64;3470547;84;26484;-89
2022/10/26 05:39:24;;;;;;;17.70;10.73;;;;;;;8.59;100.00;100854.72;3480483;83;99051;-89
2022/10/26 05:44:26;;;;;;;21.97;11.10;;;;;;;8.55;100.00;100863.42;3476873;84;26457;-89
2022/10/26 05:49:27;;;;;;;17.55;11.90;;;;;;;8.54;100.00;100859.09;3468316;84;99016;-89
2022/10/26 05:54:27;;;;;;;18.83;11.50;;;;;;;8.50;100.00;100862.90;3480551;84;26324;-90
2022/10/26 05:59:29;;;;;;;19.43;12.37;;;;;;;8.49;100.00;100868.95;3468476;84;99146;-90
2022/10/26 06:04:37;;;;;;;22.27;12.33;;;;;;;8.48;100.00;100865.98;3481269;84;25951;-89
2022/10/26 06:09:40;;;;;;;20.48;11.90;;;;;;;8.45;100.00;100870.01;3476795;84;98854;-90
2022/10/26 06:14:41;;;;;;;19.40;10.50;;;;;;;8.42;100.00;100883.85;3474191;84;33046;-89
2022/10/26 06:20:10;;;;;;;18.20;10.17;;;;;;;8.39;100.00;100885.13;3451112;82;98872;-90
2022/10/26 06:25:25;;;;;;;19.07;9.65;;;;;;;8.37;100.00;100890.16;3507206;82;32387;-90
2022/10/26 06:30:26;;;;;;;16.27;9.75;;;;;;;8.42;100.00;100893.45;3500839;82;98740;-90
2022/10/26 06:35:38;;;;;;;17.93;9.93;;;;;;;8.48;100.00;100900.83;3505495;82;26534;-90
2022/10/26 06:40:42;;;;;;;19.20;11.68;;;;;;;8.50;100.00;100907.56;3507177;82;98406;-91
2022/10/26 06:45:47;;;;;;;27.30;15.13;;;;;;;8.56;100.00;100913.61;3452185;83;32908;-90
2022/10/26 06:50:52;;;;;;;24.30;15.37;;;;;;;8.63;100.00;100909.11;3503354;82;98796;-90
2022/10/26 06:55:59;;;;;;;25.13;16.40;;;;;;;8.69;100.00;100917.86;3517597;82;27605;-90
2022/10/26 07:01:00;;;;;;;;;;;;;;;8.70;100.00;100913.41;3507791;82;99000;-90
2022/10/26 07:06:01;;;;;;;23.03;14.23;;;;;;;8.77;100.00;100925.15;3509576;82;25951;-90
2022/10/26 07:11:03;;;;;;;22.20;12.03;;;;;;;8.82;100.00;100924.30;3507023;82;98876;-90
2022/10/26 07:16:04;;;;;;;22.30;12.20;;;;;;;8.90;100.00;100921.16;3507255;82;26166;-88
2022/10/26 07:21:05;;;;;;;21.27;12.20;;;;;;;8.99;100.00;100928.06;3499381;82;98798;-91
2022/10/26 07:26:06;;;;;;;20.70;12.33;;;;;;;9.08;100.00;100937.50;3513354;82;25898;-89
2022/10/26 07:31:06;;;;;;;20.63;11.40;;;;;;;9.19;100.00;100931.13;3514687;82;98792;-90
2022/10/26 07:36:09;;;;;;;19.20;11.53;;;;;;;9.28;100.00;100941.33;3517707;82;26203;-90
2022/10/26 07:41:10;;;;;;;18.43;11.10;;;;;;;9.40;100.00;100945.94;3535963;82;25980;-89
2022/10/26 07:46:12;;;;;;;26.57;11.83;;;;;;;9.52;100.00;100948.02;3507353;82;98957;-89
2022/10/26 07:51:12;;;;;;;22.00;13.03;;;;;;;9.64;100.00;100953.39;3520020;82;26669;-90
2022/10/26 07:56:14;;;;;;;24.13;13.60;;;;;;;9.76;100.00;100956.61;3507595;83;98942;-90
2022/10/26 08:01:15;;;;;;;24.47;14.13;;;;;;;9.91;100.00;100961.25;3455521;84;25997;-90
2022/10/26 08:06:16;;;;;;;22.37;13.73;;;;;;;10.08;100.00;100961.67;3448681;83;98768;-91
2022/10/26 08:11:17;;;;;;;34.73;17.67;;;;;;;10.27;100.00;100961.70;3458440;84;25886;-90
2022/10/26 08:16:19;;;;;;;30.17;15.80;;;;;;;10.45;100.00;100960.09;3451420;84;99372;-91
2022/10/26 08:21:20;;;;;;;32.73;18.03;;;;;;;10.68;100.00;100960.16;3465637;83;25902;-91
2022/10/26 08:26:20;;;;;;;34.67;20.87;;;;;;;10.88;100.00;100963.88;3500974;82;105504;-90
2022/10/26 08:31:21;;;;;;;32.93;19.57;;;;;;;11.12;100.00;100958.00;3514629;82;25800;-89
2022/10/26 08:36:25;;;;;;;37.40;21.90;;;;;;;11.31;100.00;100955.76;3507170;82;99557;-89
2022/10/26 08:41:39;;;;;;;34.33;19.43;;;;;;;11.50;100.00;100958.44;3510600;82;26683;-89
2022/10/26 08:46:44;;;;;;;28.73;16.55;;;;;;;11.68;100.00;100958.96;3510194;82;99471;-90
2022/10/26 08:51:49;;;;;;;29.55;18.15;;;;;;;11.83;100.00;100955.22;3506397;82;32456;-91
2022/10/26 08:56:55;;;;;;;35.88;21.37;;;;;;;11.98;100.00;100952.88;3503433;82;99153;-89
2022/10/26 09:01:57;;;;;;;33.10;20.75;;;;;;;12.12;100.00;100950.89;3514204;82;28328;-88
2022/10/26 09:07:08;;;;;;;29.18;18.10;;;;;;;12.33;100.00;100958.06;3502920;82;99139;-89
2022/10/26 09:12:52;;;;;;;30.17;19.07;;;;;;;12.50;100.00;100957.48;3510839;82;31113;-89
2022/10/26 09:18:37;;;;;;;44.20;20.05;;;;;;;12.68;100.00;100962.03;3507280;82;99241;-88
2022/10/26 09:24:10;;;;;;;34.70;19.00;;;;;;;12.95;100.00;100964.89;3484451;82;31605;-92
2022/10/26 09:29:14;;;;;;;102.07;91.28;;;;;;;13.12;100.00;100969.82;3458571;84;99481;-94
2022/10/26 09:34:48;;;;;;;40.12;31.10;;;;;;;13.34;100.00;100956.97;3470558;84;33158;-93
2022/10/26 09:40:12;;;;;;;30.37;19.60;;;;;;;13.34;100.00;100956.97;3463970;84;99303;-93
2022/10/26 09:45:21;;;;;;;30.97;20.00;;;;;;;13.65;100.00;100989.61;3472779;84;31653;-94
2022/10/26 09:50:33;;;;;;;31.85;20.62;;;;;;;13.78;100.00;100986.16;3460324;83;98940;-94
2022/10/26 09:55:41;;;;;;;32.53;19.10;;;;;;;13.84;100.00;100979.08;3467432;84;32476;-93
2022/10/26 10:00:44;;;;;;;33.35;21.07;;;;;;;14.00;100.00;100978.80;3465921;84;98786;-92
2022/10/26 10:05:45;;;;;;;38.17;22.17;;;;;;;14.41;100.00;100985.17;3485961;84;32345;-95
2022/10/26 10:11:06;;;;;;;37.23;22.83;;;;;;;14.41;100.00;100985.17;3473236;84;99298;-94
2022/10/26 10:16:22;;;;;;;34.18;21.60;;;;;;;14.54;100.00;100996.68;3477054;84;32450;-94
2022/10/26 10:21:43;;;;;;;32.33;21.60;;;;;;;14.63;100.00;100992.97;3476327;82;26962;-92
2022/10/26 10:26:57;;;;;;;33.15;22.67;;;;;;;14.76;100.00;100992.22;3508173;82;99205;-91
2022/10/26 10:32:02;;;;;;;31.55;21.50;;;;;;;14.85;100.00;100987.69;3506371;82;33111;-91
2022/10/26 10:37:05;;;;;;;31.50;22.10;;;;;;;14.95;100.00;100987.73;3505319;82;99570;-90
2022/10/26 10:42:14;;;;;;;29.05;19.42;;;;;;;15.07;100.00;100985.97;3509895;82;32465;-91
2022/10/26 10:47:25;;;;;;;32.75;19.05;;;;;;;15.29;100.00;100990.35;3503367;83;99044;-91
2022/10/26 10:52:30;;;;;;;27.87;19.30;;;;;;;15.52;100.00;100989.98;3505298;82;32399;-92
2022/10/26 10:57:48;;;;;;;31.55;18.82;;;;;;;15.78;100.00;100990.96;3507987;82;99410;-93
2022/10/26 11:03:30;;;;;;;29.95;19.30;;;;;;;15.90;100.00;100998.28;3501905;83;32798;-92
2022/10/26 11:08:59;;;;;;;25.88;18.70;;;;;;;16.00;100.00;100993.90;3412615;82;99421;-92
2022/10/26 11:14:14;;;;;;;27.87;18.75;;;;;;;16.16;100.00;100998.42;3510035;82;33073;-94
2022/10/26 11:19:32;;;;;;;27.93;18.48;;;;;;;16.35;100.00;100999.38;3505699;82;99348;-93
2022/10/26 11:24:51;;;;;;;24.52;17.85;;;;;;;16.49;100.00;101002.92;3513875;82;32417;-92
2022/10/26 11:30:18;;;;;;;28.95;19.32;;;;;;;16.47;100.00;101004.52;3513520;82;99927;-93
2022/10/26 11:35:33;;;;;;;25.95;18.50;;;;;;;16.46;100.00;101004.33;3492049;82;32520;-93
2022/10/26 11:40:53;;;;;;;25.10;18.40;;;;;;;16.40;100.00;101006.72;3512487;82;99338;-90
2022/10/26 11:46:30;;;;;;;28.47;18.80;;;;;;;16.42;100.00;101008.52;3520292;82;32455;-90
2022/10/26 11:52:13;;;;;;;29.35;18.62;;;;;;;16.50;100.00;100999.53;3522095;82;28368;-92
2022/10/26 11:57:15;;;;;;;29.00;18.70;;;;;;;16.49;100.00;100995.17;3509098;82;99401;-91
2022/10/26 12:02:23;;;;;;;26.07;18.55;;;;;;;16.46;100.00;100998.78;3517149;82;33120;-92
2022/10/26 12:07:29;;;;;;;29.18;20.37;;;;;;;16.40;100.00;100995.61;3504774;82;99798;-90
2022/10/26 12:13:08;;;;;;;27.00;17.85;;;;;;;16.42;100.00;100997.41;3518403;82;33026;-91
2022/10/26 12:18:17;;;;;;;27.22;17.50;;;;;;;16.36;100.00;100998.95;3513948;82;99537;-90
2022/10/26 12:23:19;;;;;;;26.33;16.82;;;;;;;16.33;100.00;101002.55;3517917;82;33169;-91
2022/10/26 12:28:39;;;;;;;29.67;19.15;;;;;;;16.35;100.00;101001.55;3513336;82;99115;-92
2022/10/26 12:33:49;;;;;;;31.17;16.62;;;;;;;16.36;100.00;100998.18;3525599;82;32541;-90
2022/10/26 12:38:56;;;;;;;28.90;18.10;;;;;;;16.37;100.00;101001.95;3515024;82;99501;-90
2022/10/26 12:44:01;;;;;;;25.77;15.63;;;;;;;16.29;100.00;100994.05;3523463;82;32428;-91
2022/10/26 12:49:02;;;;;;;20.70;13.50;;;;;;;16.26;100.00;100988.70;3479411;82;99414;-89
2022/10/26 12:54:23;;;;;;;12.43;7.83;;;;;;;16.25;100.00;100984.31;3522853;82;31167;-91
2022/10/26 12:59:53;;;;;;;17.32;8.73;;;;;;;16.29;99.52;100988.48;3508747;82;99348;-90
2022/10/26 13:05:22;;;;;;;11.45;7.53;;;;;;;16.30;98.82;100979.73;3495605;83;32455;-91
2022/10/26 13:10:25;;;;;;;16.45;8.13;;;;;;;16.32;98.32;100987.09;3492899;83;98968;-89
2022/10/26 13:15:39;;;;;;;13.05;8.13;;;;;;;16.34;98.07;100980.52;3500743;83;32463;-90
2022/10/26 13:21:12;;;;;;;14.98;8.68;;;;;;;16.32;97.48;100969.03;3497504;83;99117;-88
2022/10/26 13:26:19;;;;;;;15.25;8.68;;;;;;;16.31;97.26;100977.17;3436761;83;99164;-89
2022/10/26 13:31:36;;;;;;;15.20;8.83;;;;;;;16.28;97.07;100975.77;3508988;82;32507;-89
2022/10/26 13:37:05;;;;;;;14.95;9.15;;;;;;;16.21;96.87;100975.22;3504165;82;99087;-90
2022/10/26 13:42:11;;;;;;;20.23;8.73;;;;;;;16.20;96.99;100978.39;3509469;82;32308;-91
2022/10/26 13:47:23;;;;;;;15.87;8.70;;;;;;;16.16;96.68;100969.27;3505829;82;99011;-89
2022/10/26 13:52:38;;;;;;;22.77;7.50;;;;;;;16.16;96.97;100971.46;3505714;82;32499;-90
2022/10/26 13:57:47;;;;;;;12.53;7.33;;;;;;;16.14;96.31;100971.66;3504497;82;99075;-89
2022/10/26 14:02:48;;;;;;;13.93;7.25;;;;;;;16.12;96.20;100978.20;3476593;82;32544;-90
2022/10/26 14:07:56;;;;;;;10.90;6.78;;;;;;;16.15;96.45;100974.63;3475964;82;99148;-89
2022/10/26 14:12:57;;;;;;;14.47;5.83;;;;;;;16.15;95.95;100972.66;3510719;82;33200;-89
2022/10/26 14:18:01;;;;;;;16.45;6.50;;;;;;;16.15;95.26;100978.21;3502208;82;99115;-90
2022/10/26 14:23:02;;;;;;;11.78;5.90;;;;;;;16.16;95.03;100983.95;3506768;82;33159;-91
2022/10/26 14:28:06;;;;;;;10.18;5.15;;;;;;;16.11;94.29;100973.26;3494098;83;99272;-92
2022/10/26 14:33:28;;;;;;;10.10;4.72;;;;;;;16.08;94.03;100972.66;3498921;83;32443;-89
2022/10/26 14:38:34;;;;;;;15.43;5.78;;;;;;;16.05;93.83;100974.86;3498904;83;99196;-89
2022/10/26 14:43:34;;;;;;;12.68;5.97;;;;;;;16.01;93.81;100973.27;3499628;83;27578;-91
2022/10/26 14:48:35;;;;;;;12.77;5.50;;;;;;;15.95;93.68;100972.09;3491369;83;99098;-90
2022/10/26 14:53:39;;;;;;;15.07;5.57;;;;;;;15.89;93.80;100982.83;3497858;83;27693;-90
2022/10/26 14:58:40;;;;;;;9.65;4.55;;;;;;;15.85;93.88;100974.29;3495976;83;99117;-91
2022/10/26 15:03:44;;;;;;;10.13;5.00;;;;;;;15.80;94.13;100979.66;3502120;83;31639;-91
2022/10/26 15:08:46;;;;;;;12.30;5.58;;;;;;;15.72;94.22;100975.91;3491604;83;99115;-90
2022/10/26 15:13:47;;;;;;;9.53;4.53;;;;;;;15.64;94.33;100979.89;3475795;83;31600;-90
2022/10/26 15:18:51;;;;;;;12.17;5.03;;;;;;;15.56;94.64;100988.00;3487753;83;99183;-90
2022/10/26 15:23:55;;;;;;;10.40;4.30;;;;;;;15.44;94.79;100983.66;3490900;83;31759;-89
2022/10/26 15:28:55;;;;;;;10.05;3.95;;;;;;;15.32;95.03;100988.16;3479771;84;98955;-89
2022/10/26 15:34:08;;;;;;;7.07;4.13;;;;;;;15.19;95.33;100989.74;3472941;84;28759;-89
2022/10/26 15:39:09;;;;;;;18.05;5.40;;;;;;;15.02;95.69;101000.21;3467135;84;98961;-90
2022/10/26 15:44:18;;;;;;;11.43;4.97;;;;;;;14.84;96.02;100996.62;3486905;84;30863;-89
2022/10/26 15:49:20;;;;;;;12.65;6.30;;;;;;;14.67;96.29;101002.09;3473658;84;99085;-90
2022/10/26 15:54:21;;;;;;;14.00;7.03;;;;;;;14.48;96.64;101002.39;3474025;84;32840;-89
2022/10/26 15:59:21;;;;;;;12.57;6.30;;;;;;;14.26;97.01;101010.39;3474461;84;99338;-89
2022/10/26 16:04:22;;;;;;;17.17;7.90;;;;;;;14.16;97.41;101020.20;3477896;84;26634;-90
2022/10/26 16:09:23;;;;;;;16.57;8.23;;;;;;;14.03;97.71;101020.91;3470615;84;99221;-90
2022/10/26 16:14:24;;;;;;;17.10;7.90;;;;;;;13.85;98.00;101020.01;3479850;84;26263;-91
2022/10/26 16:19:25;;;;;;;20.33;9.43;;;;;;;13.71;98.37;101027.61;3470879;84;99199;-91
2022/10/26 16:24:28;;;;;;;21.83;8.87;;;;;;;13.58;98.60;101032.44;3490471;82;25940;-91
2022/10/26 16:29:29;;;;;;;16.63;7.87;;;;;;;13.39;98.98;101021.59;3499162;82;99251;-91
2022/10/26 16:34:30;;;;;;;20.87;8.70;;;;;;;13.30;99.32;101035.73;3503039;82;26704;-92
2022/10/26 16:39:31;;;;;;;17.20;9.73;;;;;;;13.15;99.52;101036.78;3468563;83;98929;-92
2022/10/26 16:44:32;;;;;;;14.90;8.67;;;;;;;13.02;99.88;101045.72;3502851;82;26435;-92
2022/10/26 16:49:32;;;;;;;19.00;9.03;;;;;;;12.89;100.00;101037.43;3499464;82;98812;-92
2022/10/26 16:54:33;;;;;;;20.68;10.43;;;;;;;12.78;100.00;101037.89;3504538;82;26470;-92
2022/10/26 16:59:34;;;;;;;19.57;10.73;;;;;;;12.67;100.00;101037.78;3497117;82;99268;-91
2022/10/26 17:04:35;;;;;;;16.93;10.63;;;;;;;12.55;100.00;101039.41;3510308;82;33215;-92
2022/10/26 17:09:35;;;;;;;19.12;11.18;;;;;;;12.45;100.00;101047.53;3506301;82;99269;-93
2022/10/26 17:14:37;;;;;;;16.53;10.47;;;;;;;12.35;100.00;101042.66;3514854;82;33270;-92
2022/10/26 17:19:38;;;;;;;19.30;12.73;;;;;;;12.24;100.00;101054.14;3502008;83;99407;-93
2022/10/26 17:24:39;;;;;;;25.50;12.10;;;;;;;12.14;100.00;101061.67;3513359;82;33455;-93
2022/10/26 17:29:40;;;;;;;27.93;19.20;;;;;;;12.05;100.00;101063.92;3479556;82;99347;-93
2022/10/26 17:34:41;;;;;;;27.77;17.67;;;;;;;11.92;100.00;101068.04;3514664;82;33200;-94
2022/10/26 17:39:42;;;;;;;28.77;20.63;;;;;;;11.82;100.00;101063.95;3505784;82;99143;-95
2022/10/26 17:44:43;;;;;;;33.83;20.40;;;;;;;11.74;100.00;101069.16;3511026;82;33216;-94
2022/10/26 17:49:43;;;;;;;39.25;24.20;;;;;;;11.66;100.00;101079.06;3505680;82;99318;-93
2022/10/26 17:54:44;;;;;;;34.83;23.33;;;;;;;11.58;100.00;101079.48;3512681;82;31708;-94
2022/10/26 17:59:47;;;;;;;31.60;21.43;;;;;;;11.51;100.00;101090.97;3506846;82;99377;-95
2022/10/26 18:04:47;;;;;;;31.30;19.70;;;;;;;11.42;100.00;101093.16;3511468;82;32347;-93
2022/10/26 18:09:48;;;;;;;30.13;17.37;;;;;;;11.33;100.00;101091.23;3509013;82;99353;-94
2022/10/26 18:14:49;;;;;;;29.13;16.77;;;;;;;11.25;100.00;101093.63;3481899;83;26487;-95
2022/10/26 18:19:50;;;;;;;25.70;16.17;;;;;;;11.18;100.00;101099.02;3506518;82;99256;-94
2022/10/26 18:24:50;;;;;;;27.00;15.53;;;;;;;11.12;100.00;101093.58;3508245;82;31626;-94
2022/10/26 18:29:51;;;;;;;28.80;16.57;;;;;;;11.07;100.00;101096.63;3503622;82;99385;-92
2022/10/26 18:34:53;;;;;;;23.80;15.27;;;;;;;11.03;100.00;101097.95;3513365;82;31666;-93
2022/10/26 18:39:54;;;;;;;27.37;16.93;;;;;;;10.98;100.00;101107.87;3507439;82;99287;-93
2022/10/26 18:44:59;;;;;;;27.65;17.07;;;;;;;10.94;100.00;101121.34;3514347;82;31687;-94
2022/10/26 18:49:58;;;;;;;31.90;18.23;;;;;;;10.89;100.00;101118.87;3503808;82;99285;-94
2022/10/26 18:54:59;;;;;;;31.30;19.25;;;;;;;10.84;100.00;101121.34;3511635;82;31701;-94
2022/10/26 18:59:59;;;;;;;34.27;20.53;;;;;;;10.81;100.00;101112.44;3467716;83;99234;-94
2022/10/26 19:05:00;;;;;;;32.00;21.00;;;;;;;10.76;100.00;101123.74;3509179;82;35531;-91
2022/10/26 19:10:01;;;;;;;35.60;21.53;;;;;;;10.71;100.00;101121.27;3512806;82;99369;-92
2022/10/26 19:15:02;;;;;;;33.23;20.97;;;;;;;10.68;100.00;101132.21;3516279;82;34921;-93
2022/10/26 19:20:04;;;;;;;34.53;21.30;;;;;;;10.63;100.00;101133.88;3469431;83;99189;-92
2022/10/26 19:25:06;;;;;;;33.60;21.07;;;;;;;10.59;100.00;101147.56;3509997;82;34936;-91
2022/10/26 19:30:08;;;;;;;42.23;24.07;;;;;;;10.55;100.00;101148.62;3505196;82;99335;-92
2022/10/26 19:35:09;;;;;;;43.63;25.00;;;;;;;10.49;100.00;101150.86;3511252;82;26003;-91
2022/10/26 19:40:10;;;;;;;36.07;22.47;;;;;;;10.45;100.00;101156.05;3503919;82;99360;-95
2022/10/26 19:45:11;;;;;;;33.50;22.30;;;;;;;10.41;100.00;101164.23;3513601;82;32053;-93
2022/10/26 19:50:12;;;;;;;35.00;22.37;;;;;;;10.37;100.00;101166.68;3504711;82;99541;-94
2022/10/26 19:55:13;;;;;;;33.93;20.97;;;;;;;10.34;100.00;101170.14;3507049;82;34905;-95
2022/10/26 20:00:15;;;;;;;34.27;22.53;;;;;;;10.31;100.00;101164.77;3508771;82;99141;-93
2022/10/26 20:05:16;;;;;;;34.37;20.93;;;;;;;10.27;100.00;101174.10;3514025;82;35376;-94
2022/10/26 20:10:17;;;;;;;33.30;20.80;;;;;;;10.24;100.00;101189.96;3505581;82;98855;-93
2022/10/26 20:15:17;;;;;;;33.70;21.00;;;;;;;10.22;100.00;101186.75;3506870;82;35468;-95
2022/10/26 20:20:18;;;;;;;34.48;20.50;;;;;;;10.20;100.00;101190.45;3507785;82;99284;-95
2022/10/26 20:25:20;;;;;;;35.50;21.77;;;;;;;10.18;100.00;101189.42;3511416;82;28230;-94
2022/10/26 20:30:21;;;;;;;37.28;23.38;;;;;;;10.15;100.00;101195.62;3473779;84;99013;-94
2022/10/26 20:35:22;;;;;;;44.27;25.70;;;;;;;10.15;100.00;101186.59;3479114;84;28695;-93
2022/10/26 20:40:25;;;;;;;40.35;22.48;;;;;;;10.14;100.00;101196.78;3472901;83;98890;-93
2022/10/26 20:45:30;;;;;;;35.13;22.45;;;;;;;10.14;100.00;101200.13;3481462;84;34963;-93
2022/10/26 20:50:31;;;;;;;44.18;31.20;;;;;;;10.16;100.00;101204.68;3472120;84;99103;-94
2022/10/26 20:55:48;;;;;;;35.55;24.87;;;;;;;10.16;100.00;101201.36;3477938;84;33136;-93
2022/10/26 21:00:59;;;;;;;34.58;24.80;;;;;;;10.15;100.00;101201.12;3474705;84;99102;-93
2022/10/26 21:06:00;;;;;;;46.98;31.07;;;;;;;10.14;100.00;101198.75;3477653;84;34877;-92
2022/10/26 21:11:00;;;;;;;38.57;28.60;;;;;;;10.13;100.00;101197.13;3469827;84;98874;-93
2022/10/26 21:16:07;;;;;;;37.47;28.03;;;;;;;10.13;100.00;101196.56;3481511;84;26437;-93
2022/10/26 21:21:08;;;;;;;53.20;35.98;;;;;;;10.11;100.00;101205.75;3467814;84;98787;-93
2022/10/26 21:26:10;;;;;;;40.60;29.53;;;;;;;10.11;100.00;101197.50;3480789;82;99191;-90
2022/10/26 21:31:16;;;;;;;40.00;28.37;;;;;;;10.10;100.00;101213.79;3504397;82;26559;-92
2022/10/26 21:36:17;;;;;;;36.90;26.35;;;;;;;10.07;100.00;101215.05;3495275;82;99239;-93
2022/10/26 21:41:20;;;;;;;38.87;27.60;;;;;;;10.05;100.00;101211.87;3509093;82;29728;-94
2022/10/26 21:46:21;;;;;;;41.98;27.10;;;;;;;10.02;100.00;101206.47;3500577;82;98891;-94
2022/10/26 21:51:21;;;;;;;40.30;27.90;;;;;;;9.99;100.00;101216.00;3507144;82;29112;-93
2022/10/26 21:56:22;;;;;;;41.80;26.10;;;;;;;9.97;100.00;101213.59;3498343;82;98685;-94
2022/10/26 22:01:23;;;;;;;39.17;24.83;;;;;;;9.94;100.00;101218.45;3508836;82;25972;-93
2022/10/26 22:06:24;;;;;;;36.27;24.63;;;;;;;9.92;100.00;101215.23;3510309;82;98760;-94
2022/10/26 22:11:24;;;;;;;36.27;25.40;;;;;;;9.91;100.00;101217.77;3511659;82;32569;-95
2022/10/26 22:16:28;;;;;;;37.93;23.30;;;;;;;9.89;100.00;101213.20;3504032;82;98665;-95
2022/10/26 22:21:33;;;;;;;33.27;23.07;;;;;;;9.90;100.00;101216.73;3512372;82;26217;-93
2022/10/26 22:26:36;;;;;;;37.45;21.93;;;;;;;9.89;100.00;101218.70;3508026;82;99035;-95
2022/10/26 22:31:39;;;;;;;32.63;21.12;;;;;;;9.91;100.00;101215.02;3513835;82;35466;-86
2022/10/26 22:36:40;;;;;;;34.60;21.55;;;;;;;9.93;100.00;101211.33;3505827;82;98973;-86
2022/10/26 22:41:41;;;;;;;34.30;21.90;;;;;;;9.95;100.00;101211.80;3510291;82;25870;-86
2022/10/26 22:46:42;;;;;;;33.73;21.93;;;;;;;9.97;100.00;101214.20;3506109;82;99084;-86
2022/10/26 22:51:43;;;;;;;33.00;21.33;;;;;;;9.99;100.00;101214.06;3515333;82;33155;-86
2022/10/26 22:56:43;;;;;;;35.57;21.30;;;;;;;10.03;100.00;101228.68;3506056;82;99096;-86
2022/10/26 23:01:44;;;;;;;28.20;19.17;;;;;;;10.08;100.00;101235.33;3512625;82;32542;-86
2022/10/26 23:06:45;;;;;;;34.03;21.50;;;;;;;10.08;100.00;101235.33;3511622;82;99176;-94
2022/10/26 23:11:46;;;;;;;33.25;21.07;;;;;;;10.10;100.00;101239.11;3512849;82;26386;-94